West Camp, New York
Current Conditions -  °F | °C
As of 3:53 PM on Thursday 20 Nov 2014 (Local Time) from KPOU Reporting Station
Clear Clear  
Wind Chill: 34°   Ceiling: Unl
Heat Index: 42°   Visibility: 10mi
Dew Point: 12°   Wind: 17mph
Humidity: 29%   Direction: 270°W
Pressure: 29.82"   Gusts: 24mph
Location:  42.12°N, 73.94°W
Report Text: KPOU 202053Z 27015G21KT 10SM CLR 06/M11 A2982 RMK AO2 SLP097 T00561111 53002
Loading
Personal Weather Stations






























Interactive Weather Map New forecast layout! Learn more

10-Day Weather Forecast

Advertisements
Track Severe Weather on mobile